Papanduva, Brazil
Current Conditions -  °F | °C
As of 1:00 PM on Thursday 23 Oct 2014 (Local Time) from SBJV Reporting Station
Scattered Clouds Scattered Clouds  
Wind Chill: 75°   Ceiling: Unl
Heat Index: 75°   Visibility: 6mi
Dew Point: 63°   Wind: 6mph
Humidity: 65%   Direction: 70°ENE
Pressure: 30.09"   Gusts: NA
Location:  26.41°S, 50.14°W
Report Text: SBJV 231500Z 07005KT 9999 SCT030 24/17 Q1019
Loading
Personal Weather Stations






























Interactive Weather Map
Tropical Storm Tracking
New forecast layout! Learn more

10-Day Weather Forecast

Advertisements
Track Severe Weather on mobile